sensor_id;sensor_type;location;lat;lon;timestamp;pressure;altitude;pressure_sealevel;temperature;humidity
79118;BME280;68523;51.336;-0.846;2023-07-31T00:00:00;99925.0;;;15.83;98.6
79118;BME280;68523;51.336;-0.846;2023-07-31T00:03:00;99925.0;;;15.82;98.7
79118;BME280;68523;51.336;-0.846;2023-07-31T00:06:00;99915.0;;;15.85;98.7
79118;BME280;68523;51.336;-0.846;2023-07-31T00:09:00;99915.0;;;15.86;98.6
79118;BME280;68523;51.336;-0.846;2023-07-31T00:12:00;99915.0;;;15.89;98.6
79118;BME280;68523;51.336;-0.846;2023-07-31T00:15:00;99915.0;;;15.94;98.4
79118;BME280;68523;51.336;-0.846;2023-07-31T00:18:00;99905.0;;;15.96;98.3
79118;BME280;68523;51.336;-0.846;2023-07-31T00:21:00;99895.0;;;15.97;98.4
79118;BME280;68523;51.336;-0.846;2023-07-31T00:24:00;99895.0;;;15.99;98.5
79118;BME280;68523;51.336;-0.846;2023-07-31T00:27:00;99895.0;;;16.00;98.5
79118;BME280;68523;51.336;-0.846;2023-07-31T00:30:00;99885.0;;;16.00;98.4
79118;BME280;68523;51.336;-0.846;2023-07-31T00:33:00;99885.0;;;16.02;98.4
79118;BME280;68523;51.336;-0.846;2023-07-31T00:36:00;99875.0;;;16.03;98.4
79118;BME280;68523;51.336;-0.846;2023-07-31T00:39:00;99875.0;;;16.01;98.6
79118;BME280;68523;51.336;-0.846;2023-07-31T00:42:00;99875.0;;;16.00;98.6
79118;BME280;68523;51.336;-0.846;2023-07-31T00:45:00;99865.0;;;16.00;98.7
79118;BME280;68523;51.336;-0.846;2023-07-31T00:48:01;99855.0;;;16.02;98.9
79118;BME280;68523;51.336;-0.846;2023-07-31T00:51:00;99845.0;;;16.02;98.8
79118;BME280;68523;51.336;-0.846;2023-07-31T00:54:00;99835.0;;;16.03;98.9
79118;BME280;68523;51.336;-0.846;2023-07-31T00:57:00;99835.0;;;16.03;98.9
79118;BME280;68523;51.336;-0.846;2023-07-31T01:00:00;99835.0;;;16.05;98.9
79118;BME280;68523;51.336;-0.846;2023-07-31T01:03:00;99835.0;;;16.06;98.7
79118;BME280;68523;51.336;-0.846;2023-07-31T01:06:08;99835.0;;;16.10;98.7
79118;BME280;68523;51.336;-0.846;2023-07-31T01:09:03;99835.0;;;16.07;98.8
79118;BME280;68523;51.336;-0.846;2023-07-31T01:12:02;99825.0;;;16.09;98.9
79118;BME280;68523;51.336;-0.846;2023-07-31T01:15:03;99825.0;;;16.12;98.8
79118;BME280;68523;51.336;-0.846;2023-07-31T01:18:00;99815.0;;;16.16;98.7
79118;BME280;68523;51.336;-0.846;2023-07-31T01:21:06;99805.0;;;16.16;98.7
79118;BME280;68523;51.336;-0.846;2023-07-31T01:24:17;99795.0;;;16.19;98.6
79118;BME280;68523;51.336;-0.846;2023-07-31T01:27:04;99805.0;;;16.24;98.5
79118;BME280;68523;51.336;-0.846;2023-07-31T01:30:06;99795.0;;;16.24;98.6
79118;BME280;68523;51.336;-0.846;2023-07-31T01:33:00;99785.0;;;16.23;98.7
79118;BME280;68523;51.336;-0.846;2023-07-31T01:36:00;99785.0;;;16.23;98.8
79118;BME280;68523;51.336;-0.846;2023-07-31T01:39:01;99775.0;;;16.24;98.7
79118;BME280;68523;51.336;-0.846;2023-07-31T01:42:00;99785.0;;;16.24;98.9
79118;BME280;68523;51.336;-0.846;2023-07-31T01:45:01;99785.0;;;16.28;98.8
79118;BME280;68523;51.336;-0.846;2023-07-31T01:48:00;99775.0;;;16.26;99.0
79118;BME280;68523;51.336;-0.846;2023-07-31T01:51:00;99775.0;;;16.28;98.9
79118;BME280;68523;51.336;-0.846;2023-07-31T01:54:00;99765.0;;;16.29;99.0
79118;BME280;68523;51.336;-0.846;2023-07-31T01:57:00;99765.0;;;16.26;99.2
79118;BME280;68523;51.336;-0.846;2023-07-31T02:00:00;99745.0;;;16.25;99.3
79118;BME280;68523;51.336;-0.846;2023-07-31T02:03:00;99755.0;;;16.27;99.3
79118;BME280;68523;51.336;-0.846;2023-07-31T02:06:00;99745.0;;;16.25;99.4
79118;BME280;68523;51.336;-0.846;2023-07-31T02:09:00;99735.0;;;16.25;99.4
79118;BME280;68523;51.336;-0.846;2023-07-31T02:12:00;99735.0;;;16.27;99.5
79118;BME280;68523;51.336;-0.846;2023-07-31T02:15:00;99735.0;;;16.27;99.5
79118;BME280;68523;51.336;-0.846;2023-07-31T02:18:00;99725.0;;;16.33;99.4
79118;BME280;68523;51.336;-0.846;2023-07-31T02:21:00;99725.0;;;16.32;99.4
79118;BME280;68523;51.336;-0.846;2023-07-31T02:24:00;99725.0;;;16.34;99.2
79118;BME280;68523;51.336;-0.846;2023-07-31T02:27:00;99715.0;;;16.35;99.3
79118;BME280;68523;51.336;-0.846;2023-07-31T02:30:00;99715.0;;;16.36;99.3
79118;BME280;68523;51.336;-0.846;2023-07-31T02:33:00;99705.0;;;16.40;99.2
79118;BME280;68523;51.336;-0.846;2023-07-31T02:36:00;99705.0;;;16.41;99.3
79118;BME280;68523;51.336;-0.846;2023-07-31T02:39:00;99705.0;;;16.45;99.1
79118;BME280;68523;51.336;-0.846;2023-07-31T02:42:01;99695.0;;;16.46;99.1
79118;BME280;68523;51.336;-0.846;2023-07-31T02:45:00;99695.0;;;16.48;99.1
79118;BME280;68523;51.336;-0.846;2023-07-31T02:48:00;99685.0;;;16.51;99.1
79118;BME280;68523;51.336;-0.846;2023-07-31T02:51:00;99685.0;;;16.51;99.1
79118;BME280;68523;51.336;-0.846;2023-07-31T02:54:00;99675.0;;;16.53;99.1
79118;BME280;68523;51.336;-0.846;2023-07-31T02:57:00;99675.0;;;16.57;99.0
79118;BME280;68523;51.336;-0.846;2023-07-31T03:00:00;99685.0;;;16.63;98.7
79118;BME280;68523;51.336;-0.846;2023-07-31T03:03:00;99685.0;;;16.64;98.7
79118;BME280;68523;51.336;-0.846;2023-07-31T03:06:00;99695.0;;;16.66;98.7
79118;BME280;68523;51.336;-0.846;2023-07-31T03:09:00;99685.0;;;16.70;98.6
79118;BME280;68523;51.336;-0.846;2023-07-31T03:12:00;99685.0;;;16.65;98.7
79118;BME280;68523;51.336;-0.846;2023-07-31T03:15:00;99685.0;;;16.72;98.5
79118;BME280;68523;51.336;-0.846;2023-07-31T03:18:00;99675.0;;;16.77;98.3
79118;BME280;68523;51.336;-0.846;2023-07-31T03:21:00;99675.0;;;16.80;98.2
79118;BME280;68523;51.336;-0.846;2023-07-31T03:24:00;99665.0;;;16.83;98.1
79118;BME280;68523;51.336;-0.846;2023-07-31T03:27:00;99665.0;;;16.83;98.1
79118;BME280;68523;51.336;-0.846;2023-07-31T03:30:00;99665.0;;;16.90;97.8
79118;BME280;68523;51.336;-0.846;2023-07-31T03:33:00;99665.0;;;16.87;98.0
79118;BME280;68523;51.336;-0.846;2023-07-31T03:36:00;99655.0;;;16.83;98.1
79118;BME280;68523;51.336;-0.846;2023-07-31T03:39:00;99665.0;;;16.88;98.0
79118;BME280;68523;51.336;-0.846;2023-07-31T03:42:00;99655.0;;;16.88;98.0
79118;BME280;68523;51.336;-0.846;2023-07-31T03:45:00;99655.0;;;16.87;98.0
79118;BME280;68523;51.336;-0.846;2023-07-31T03:48:00;99655.0;;;16.89;97.9
79118;BME280;68523;51.336;-0.846;2023-07-31T03:51:00;99655.0;;;16.91;97.9
79118;BME280;68523;51.336;-0.846;2023-07-31T03:54:00;99655.0;;;16.92;97.8
79118;BME280;68523;51.336;-0.846;2023-07-31T03:57:00;99655.0;;;16.99;97.4
79118;BME280;68523;51.336;-0.846;2023-07-31T04:00:01;99655.0;;;17.01;97.3
79118;BME280;68523;51.336;-0.846;2023-07-31T04:03:00;99655.0;;;17.02;97.5
79118;BME280;68523;51.336;-0.846;2023-07-31T04:06:00;99665.0;;;17.01;97.5
79118;BME280;68523;51.336;-0.846;2023-07-31T04:09:00;99655.0;;;17.01;97.5
79118;BME280;68523;51.336;-0.846;2023-07-31T04:12:00;99645.0;;;17.04;97.3
79118;BME280;68523;51.336;-0.846;2023-07-31T04:15:00;99645.0;;;17.02;97.2
79118;BME280;68523;51.336;-0.846;2023-07-31T04:18:00;99645.0;;;17.05;97.3
79118;BME280;68523;51.336;-0.846;2023-07-31T04:21:00;99645.0;;;17.10;97.0
79118;BME280;68523;51.336;-0.846;2023-07-31T04:24:00;99645.0;;;17.08;97.1
79118;BME280;68523;51.336;-0.846;2023-07-31T04:27:00;99655.0;;;17.10;97.0
79118;BME280;68523;51.336;-0.846;2023-07-31T04:30:00;99655.0;;;17.06;97.1
79118;BME280;68523;51.336;-0.846;2023-07-31T04:33:00;99665.0;;;17.06;97.1
79118;BME280;68523;51.336;-0.846;2023-07-31T04:36:00;99665.0;;;17.10;96.9
79118;BME280;68523;51.336;-0.846;2023-07-31T04:39:00;99655.0;;;17.15;96.8
79118;BME280;68523;51.336;-0.846;2023-07-31T04:42:00;99655.0;;;17.18;96.6
79118;BME280;68523;51.336;-0.846;2023-07-31T04:45:00;99645.0;;;17.11;96.9
79118;BME280;68523;51.336;-0.846;2023-07-31T04:48:00;99645.0;;;17.12;96.9
79118;BME280;68523;51.336;-0.846;2023-07-31T04:51:00;99645.0;;;17.17;96.5
79118;BME280;68523;51.336;-0.846;2023-07-31T04:54:00;99645.0;;;17.17;96.5
79118;BME280;68523;51.336;-0.846;2023-07-31T04:57:00;99655.0;;;17.18;96.4
79118;BME280;68523;51.336;-0.846;2023-07-31T05:00:00;99645.0;;;17.21;96.1
79118;BME280;68523;51.336;-0.846;2023-07-31T05:03:00;99635.0;;;17.26;95.6
79118;BME280;68523;51.336;-0.846;2023-07-31T05:06:00;99645.0;;;17.26;95.6
79118;BME280;68523;51.336;-0.846;2023-07-31T05:09:00;99645.0;;;17.27;95.8
79118;BME280;68523;51.336;-0.846;2023-07-31T05:12:00;99635.0;;;17.26;95.5
79118;BME280;68523;51.336;-0.846;2023-07-31T05:15:00;99625.0;;;17.36;95.2
79118;BME280;68523;51.336;-0.846;2023-07-31T05:18:00;99635.0;;;17.33;95.1
79118;BME280;68523;51.336;-0.846;2023-07-31T05:21:00;99635.0;;;17.33;95.2
79118;BME280;68523;51.336;-0.846;2023-07-31T05:24:00;99645.0;;;17.34;95.2
79118;BME280;68523;51.336;-0.846;2023-07-31T05:27:00;99655.0;;;17.36;95.2
79118;BME280;68523;51.336;-0.846;2023-07-31T05:30:00;99655.0;;;17.38;94.9
79118;BME280;68523;51.336;-0.846;2023-07-31T05:33:00;99645.0;;;17.41;95.2
79118;BME280;68523;51.336;-0.846;2023-07-31T05:36:00;99645.0;;;17.32;95.4
79118;BME280;68523;51.336;-0.846;2023-07-31T05:39:00;99645.0;;;17.38;95.4
79118;BME280;68523;51.336;-0.846;2023-07-31T05:42:00;99645.0;;;17.37;95.2
79118;BME280;68523;51.336;-0.846;2023-07-31T05:45:00;99645.0;;;17.37;95.2
79118;BME280;68523;51.336;-0.846;2023-07-31T05:48:00;99645.0;;;17.43;95.1
79118;BME280;68523;51.336;-0.846;2023-07-31T05:51:00;99655.0;;;17.52;94.6
79118;BME280;68523;51.336;-0.846;2023-07-31T05:54:00;99655.0;;;17.55;94.6
79118;BME280;68523;51.336;-0.846;2023-07-31T05:57:00;99655.0;;;17.54;94.4
79118;BME280;68523;51.336;-0.846;2023-07-31T06:00:00;99645.0;;;17.66;93.7
79118;BME280;68523;51.336;-0.846;2023-07-31T06:03:00;99655.0;;;17.73;93.7
79118;BME280;68523;51.336;-0.846;2023-07-31T06:06:00;99665.0;;;17.74;93.7
79118;BME280;68523;51.336;-0.846;2023-07-31T06:09:00;99665.0;;;17.77;93.8
79118;BME280;68523;51.336;-0.846;2023-07-31T06:12:00;99655.0;;;17.76;93.9
79118;BME280;68523;51.336;-0.846;2023-07-31T06:15:02;99645.0;;;17.73;93.8
79118;BME280;68523;51.336;-0.846;2023-07-31T06:18:00;99645.0;;;17.71;94.1
79118;BME280;68523;51.336;-0.846;2023-07-31T06:21:00;99645.0;;;17.76;93.9
79118;BME280;68523;51.336;-0.846;2023-07-31T06:24:00;99645.0;;;17.80;94.0
79118;BME280;68523;51.336;-0.846;2023-07-31T06:27:00;99635.0;;;17.85;93.8
79118;BME280;68523;51.336;-0.846;2023-07-31T06:30:00;99635.0;;;17.86;93.9
79118;BME280;68523;51.336;-0.846;2023-07-31T06:33:00;99645.0;;;17.80;93.8
79118;BME280;68523;51.336;-0.846;2023-07-31T06:36:00;99645.0;;;17.77;93.9
79118;BME280;68523;51.336;-0.846;2023-07-31T06:39:00;99645.0;;;17.76;94.1
79118;BME280;68523;51.336;-0.846;2023-07-31T06:42:00;99645.0;;;17.74;94.3
79118;BME280;68523;51.336;-0.846;2023-07-31T06:45:00;99645.0;;;17.74;94.1
79118;BME280;68523;51.336;-0.846;2023-07-31T06:48:00;99635.0;;;17.81;94.0
79118;BME280;68523;51.336;-0.846;2023-07-31T06:51:00;99635.0;;;17.82;93.7
79118;BME280;68523;51.336;-0.846;2023-07-31T06:54:00;99625.0;;;17.92;93.9
79118;BME280;68523;51.336;-0.846;2023-07-31T06:57:00;99605.0;;;17.92;93.7
79118;BME280;68523;51.336;-0.846;2023-07-31T07:00:00;99605.0;;;17.88;93.3
79118;BME280;68523;51.336;-0.846;2023-07-31T07:03:00;99605.0;;;17.90;93.7
79118;BME280;68523;51.336;-0.846;2023-07-31T07:06:00;99605.0;;;17.94;93.4
79118;BME280;68523;51.336;-0.846;2023-07-31T07:09:00;99605.0;;;17.97;93.5
79118;BME280;68523;51.336;-0.846;2023-07-31T07:12:00;99605.0;;;17.99;93.0
79118;BME280;68523;51.336;-0.846;2023-07-31T07:15:00;99605.0;;;18.12;93.3
79118;BME280;68523;51.336;-0.846;2023-07-31T07:18:00;99595.0;;;18.09;93.1
79118;BME280;68523;51.336;-0.846;2023-07-31T07:21:00;99605.0;;;18.04;93.5
79118;BME280;68523;51.336;-0.846;2023-07-31T07:24:00;99605.0;;;17.92;94.3
79118;BME280;68523;51.336;-0.846;2023-07-31T07:27:00;99595.0;;;17.81;94.5
79118;BME280;68523;51.336;-0.846;2023-07-31T07:30:00;99595.0;;;17.84;95.3
79118;BME280;68523;51.336;-0.846;2023-07-31T07:33:00;99595.0;;;17.89;95.0
79118;BME280;68523;51.336;-0.846;2023-07-31T07:36:00;99595.0;;;17.97;94.8
79118;BME280;68523;51.336;-0.846;2023-07-31T07:39:00;99595.0;;;18.04;94.6
79118;BME280;68523;51.336;-0.846;2023-07-31T07:42:00;99595.0;;;18.13;94.1
79118;BME280;68523;51.336;-0.846;2023-07-31T07:45:00;99595.0;;;18.09;94.0
79118;BME280;68523;51.336;-0.846;2023-07-31T07:48:00;99595.0;;;18.19;93.3
79118;BME280;68523;51.336;-0.846;2023-07-31T07:51:00;99585.0;;;18.29;92.8
79118;BME280;68523;51.336;-0.846;2023-07-31T07:54:00;99585.0;;;18.40;92.4
79118;BME280;68523;51.336;-0.846;2023-07-31T07:57:00;99575.0;;;18.44;92.2
79118;BME280;68523;51.336;-0.846;2023-07-31T08:00:00;99585.0;;;18.41;91.9
79118;BME280;68523;51.336;-0.846;2023-07-31T08:03:00;99565.0;;;18.39;92.5
79118;BME280;68523;51.336;-0.846;2023-07-31T08:06:00;99565.0;;;18.42;91.9
79118;BME280;68523;51.336;-0.846;2023-07-31T08:09:00;99565.0;;;18.39;91.9
79118;BME280;68523;51.336;-0.846;2023-07-31T08:12:00;99555.0;;;18.41;91.4
79118;BME280;68523;51.336;-0.846;2023-07-31T08:15:00;99535.0;;;18.44;91.5
79118;BME280;68523;51.336;-0.846;2023-07-31T08:18:00;99535.0;;;18.54;91.6
79118;BME280;68523;51.336;-0.846;2023-07-31T08:21:01;99545.0;;;18.54;91.5
79118;BME280;68523;51.336;-0.846;2023-07-31T08:24:00;99555.0;;;18.46;91.4
79118;BME280;68523;51.336;-0.846;2023-07-31T08:27:00;99555.0;;;18.55;91.5
79118;BME280;68523;51.336;-0.846;2023-07-31T08:30:00;99545.0;;;18.66;91.0
79118;BME280;68523;51.336;-0.846;2023-07-31T08:33:00;99545.0;;;18.66;90.9
79118;BME280;68523;51.336;-0.846;2023-07-31T08:36:00;99535.0;;;18.67;90.7
79118;BME280;68523;51.336;-0.846;2023-07-31T08:39:00;99545.0;;;18.75;90.5
79118;BME280;68523;51.336;-0.846;2023-07-31T08:42:00;99535.0;;;18.97;90.2
79118;BME280;68523;51.336;-0.846;2023-07-31T08:45:01;99535.0;;;18.91;89.8
79118;BME280;68523;51.336;-0.846;2023-07-31T08:48:00;99535.0;;;18.89;89.7
79118;BME280;68523;51.336;-0.846;2023-07-31T08:51:00;99545.0;;;18.83;89.4
79118;BME280;68523;51.336;-0.846;2023-07-31T08:54:00;99545.0;;;18.81;89.5
79118;BME280;68523;51.336;-0.846;2023-07-31T08:57:00;99545.0;;;19.02;89.4
79118;BME280;68523;51.336;-0.846;2023-07-31T09:00:00;99545.0;;;19.12;88.1
79118;BME280;68523;51.336;-0.846;2023-07-31T09:03:02;99535.0;;;19.23;87.4
79118;BME280;68523;51.336;-0.846;2023-07-31T09:06:00;99545.0;;;19.16;87.8
79118;BME280;68523;51.336;-0.846;2023-07-31T09:09:00;99535.0;;;19.09;87.2
79118;BME280;68523;51.336;-0.846;2023-07-31T09:12:00;99525.0;;;19.05;88.0
79118;BME280;68523;51.336;-0.846;2023-07-31T09:15:00;99525.0;;;19.02;87.1
79118;BME280;68523;51.336;-0.846;2023-07-31T09:18:01;99525.0;;;19.15;86.7
79118;BME280;68523;51.336;-0.846;2023-07-31T09:21:01;99505.0;;;19.40;84.8
79118;BME280;68523;51.336;-0.846;2023-07-31T09:24:00;99495.0;;;20.05;82.7
79118;BME280;68523;51.336;-0.846;2023-07-31T09:27:01;99495.0;;;20.52;82.1
79118;BME280;68523;51.336;-0.846;2023-07-31T09:30:00;99525.0;;;20.43;79.9
79118;BME280;68523;51.336;-0.846;2023-07-31T09:33:02;99525.0;;;20.51;82.4
79118;BME280;68523;51.336;-0.846;2023-07-31T09:36:00;99515.0;;;20.66;80.1
79118;BME280;68523;51.336;-0.846;2023-07-31T09:39:02;99495.0;;;20.68;80.6
79118;BME280;68523;51.336;-0.846;2023-07-31T09:42:00;99495.0;;;20.60;80.5
79118;BME280;68523;51.336;-0.846;2023-07-31T09:45:07;99485.0;;;20.57;80.1
79118;BME280;68523;51.336;-0.846;2023-07-31T09:48:00;99495.0;;;20.09;81.6
79118;BME280;68523;51.336;-0.846;2023-07-31T09:51:04;99515.0;;;19.81;84.0
79118;BME280;68523;51.336;-0.846;2023-07-31T09:54:00;99495.0;;;19.56;86.2
79118;BME280;68523;51.336;-0.846;2023-07-31T09:57:00;99495.0;;;19.28;86.2
79118;BME280;68523;51.336;-0.846;2023-07-31T10:00:00;99515.0;;;19.41;84.8
79118;BME280;68523;51.336;-0.846;2023-07-31T10:03:04;99525.0;;;19.42;83.3
79118;BME280;68523;51.336;-0.846;2023-07-31T10:06:01;99515.0;;;19.67;80.7
79118;BME280;68523;51.336;-0.846;2023-07-31T10:09:00;99515.0;;;19.64;75.9
79118;BME280;68523;51.336;-0.846;2023-07-31T10:12:02;99495.0;;;19.77;76.7
79118;BME280;68523;51.336;-0.846;2023-07-31T10:15:00;99505.0;;;19.78;76.6
79118;BME280;68523;51.336;-0.846;2023-07-31T10:18:01;99525.0;;;19.68;75.2
79118;BME280;68523;51.336;-0.846;2023-07-31T10:21:00;99545.0;;;19.51;76.1
79118;BME280;68523;51.336;-0.846;2023-07-31T10:24:02;99555.0;;;19.28;75.2
79118;BME280;68523;51.336;-0.846;2023-07-31T10:27:01;99575.0;;;19.45;76.1
79118;BME280;68523;51.336;-0.846;2023-07-31T10:30:00;99575.0;;;19.33;74.7
79118;BME280;68523;51.336;-0.846;2023-07-31T10:33:00;99585.0;;;19.45;73.8
79118;BME280;68523;51.336;-0.846;2023-07-31T10:36:12;99565.0;;;19.51;72.8
79118;BME280;68523;51.336;-0.846;2023-07-31T10:39:03;99555.0;;;19.42;73.1
79118;BME280;68523;51.336;-0.846;2023-07-31T10:42:09;99555.0;;;19.32;74.7
79118;BME280;68523;51.336;-0.846;2023-07-31T10:45:02;99535.0;;;19.29;75.3
79118;BME280;68523;51.336;-0.846;2023-07-31T10:48:01;99545.0;;;19.02;73.5
79118;BME280;68523;51.336;-0.846;2023-07-31T10:51:00;99535.0;;;19.05;75.7
79118;BME280;68523;51.336;-0.846;2023-07-31T10:54:10;99545.0;;;18.81;74.1
79118;BME280;68523;51.336;-0.846;2023-07-31T10:57:00;99555.0;;;18.77;75.8
79118;BME280;68523;51.336;-0.846;2023-07-31T11:00:20;99555.0;;;18.81;75.7
79118;BME280;68523;51.336;-0.846;2023-07-31T11:03:02;99555.0;;;18.92;76.5
79118;BME280;68523;51.336;-0.846;2023-07-31T11:06:01;99555.0;;;18.85;76.1
79118;BME280;68523;51.336;-0.846;2023-07-31T11:09:00;99545.0;;;19.69;74.3
79118;BME280;68523;51.336;-0.846;2023-07-31T11:12:00;99535.0;;;19.72;74.0
79118;BME280;68523;51.336;-0.846;2023-07-31T11:15:00;99535.0;;;19.45;74.4
79118;BME280;68523;51.336;-0.846;2023-07-31T11:18:00;99535.0;;;19.54;75.2
79118;BME280;68523;51.336;-0.846;2023-07-31T11:21:00;99515.0;;;19.25;76.1
79118;BME280;68523;51.336;-0.846;2023-07-31T11:24:00;99505.0;;;19.18;77.3
79118;BME280;68523;51.336;-0.846;2023-07-31T11:27:07;99525.0;;;19.17;77.3
79118;BME280;68523;51.336;-0.846;2023-07-31T11:30:00;99515.0;;;19.25;77.4
79118;BME280;68523;51.336;-0.846;2023-07-31T11:33:01;99525.0;;;19.25;77.2
79118;BME280;68523;51.336;-0.846;2023-07-31T11:36:00;99525.0;;;19.12;77.3
79118;BME280;68523;51.336;-0.846;2023-07-31T11:39:04;99545.0;;;19.18;78.0
79118;BME280;68523;51.336;-0.846;2023-07-31T11:42:00;99545.0;;;19.18;77.9
79118;BME280;68523;51.336;-0.846;2023-07-31T11:45:02;99545.0;;;19.19;78.2
79118;BME280;68523;51.336;-0.846;2023-07-31T11:48:00;99535.0;;;19.16;78.3
79118;BME280;68523;51.336;-0.846;2023-07-31T11:51:01;99535.0;;;19.07;78.4
79118;BME280;68523;51.336;-0.846;2023-07-31T11:54:01;99545.0;;;18.96;78.8
79118;BME280;68523;51.336;-0.846;2023-07-31T11:57:00;99535.0;;;18.90;79.9
79118;BME280;68523;51.336;-0.846;2023-07-31T12:00:00;99525.0;;;18.81;79.1
79118;BME280;68523;51.336;-0.846;2023-07-31T12:03:00;99535.0;;;18.82;80.1
79118;BME280;68523;51.336;-0.846;2023-07-31T12:06:00;99525.0;;;18.67;79.8
79118;BME280;68523;51.336;-0.846;2023-07-31T12:09:02;99525.0;;;18.51;78.2
79118;BME280;68523;51.336;-0.846;2023-07-31T12:12:01;99535.0;;;18.43;77.8
79118;BME280;68523;51.336;-0.846;2023-07-31T12:15:00;99535.0;;;18.45;77.9
79118;BME280;68523;51.336;-0.846;2023-07-31T12:18:01;99535.0;;;18.39;78.2
79118;BME280;68523;51.336;-0.846;2023-07-31T12:21:01;99515.0;;;18.41;79.4
79118;BME280;68523;51.336;-0.846;2023-07-31T12:24:01;99505.0;;;18.25;78.5
79118;BME280;68523;51.336;-0.846;2023-07-31T12:27:00;99505.0;;;18.21;78.6
79118;BME280;68523;51.336;-0.846;2023-07-31T12:30:00;99495.0;;;18.16;78.3
79118;BME280;68523;51.336;-0.846;2023-07-31T12:33:03;99495.0;;;18.17;78.2
79118;BME280;68523;51.336;-0.846;2023-07-31T12:36:01;99495.0;;;18.05;79.7
79118;BME280;68523;51.336;-0.846;2023-07-31T12:39:00;99495.0;;;17.89;82.4
79118;BME280;68523;51.336;-0.846;2023-07-31T12:42:00;99475.0;;;17.72;82.3
79118;BME280;68523;51.336;-0.846;2023-07-31T12:45:01;99485.0;;;17.50;83.5
79118;BME280;68523;51.336;-0.846;2023-07-31T12:48:01;99485.0;;;17.38;84.2
79118;BME280;68523;51.336;-0.846;2023-07-31T12:51:00;99485.0;;;17.26;85.5
79118;BME280;68523;51.336;-0.846;2023-07-31T12:54:00;99495.0;;;17.14;85.7
79118;BME280;68523;51.336;-0.846;2023-07-31T12:57:00;99485.0;;;17.06;87.0
79118;BME280;68523;51.336;-0.846;2023-07-31T13:00:00;99495.0;;;17.01;88.2
79118;BME280;68523;51.336;-0.846;2023-07-31T13:03:00;99495.0;;;16.94;89.6
79118;BME280;68523;51.336;-0.846;2023-07-31T13:06:00;99505.0;;;16.92;89.8
79118;BME280;68523;51.336;-0.846;2023-07-31T13:09:00;99495.0;;;16.91;90.6
79118;BME280;68523;51.336;-0.846;2023-07-31T13:12:00;99495.0;;;16.83;90.8
79118;BME280;68523;51.336;-0.846;2023-07-31T13:15:01;99495.0;;;16.72;92.0
79118;BME280;68523;51.336;-0.846;2023-07-31T13:18:00;99495.0;;;16.58;90.7
79118;BME280;68523;51.336;-0.846;2023-07-31T13:21:00;99495.0;;;16.44;90.5
79118;BME280;68523;51.336;-0.846;2023-07-31T13:24:00;99485.0;;;16.39;90.9
79118;BME280;68523;51.336;-0.846;2023-07-31T13:27:00;99485.0;;;16.35;91.3
79118;BME280;68523;51.336;-0.846;2023-07-31T13:30:00;99515.0;;;16.25;92.3
79118;BME280;68523;51.336;-0.846;2023-07-31T13:33:00;99525.0;;;16.26;92.8
79118;BME280;68523;51.336;-0.846;2023-07-31T13:36:00;99515.0;;;16.27;93.5
79118;BME280;68523;51.336;-0.846;2023-07-31T13:39:00;99505.0;;;16.39;94.0
79118;BME280;68523;51.336;-0.846;2023-07-31T13:42:00;99485.0;;;16.35;93.8
79118;BME280;68523;51.336;-0.846;2023-07-31T13:45:00;99465.0;;;16.27;94.4
79118;BME280;68523;51.336;-0.846;2023-07-31T13:48:00;99485.0;;;16.25;94.1
79118;BME280;68523;51.336;-0.846;2023-07-31T13:51:00;99445.0;;;16.20;93.9
79118;BME280;68523;51.336;-0.846;2023-07-31T13:54:01;99435.0;;;16.18;93.1
79118;BME280;68523;51.336;-0.846;2023-07-31T13:57:00;99495.0;;;16.06;92.8
79118;BME280;68523;51.336;-0.846;2023-07-31T14:00:00;99505.0;;;16.01;93.4
79118;BME280;68523;51.336;-0.846;2023-07-31T14:03:00;99485.0;;;15.95;93.3
79118;BME280;68523;51.336;-0.846;2023-07-31T14:06:00;99485.0;;;15.98;93.9
79118;BME280;68523;51.336;-0.846;2023-07-31T14:09:00;99455.0;;;15.95;92.9
79118;BME280;68523;51.336;-0.846;2023-07-31T14:12:00;99445.0;;;16.01;93.2
79118;BME280;68523;51.336;-0.846;2023-07-31T14:15:00;99465.0;;;16.07;93.9
79118;BME280;68523;51.336;-0.846;2023-07-31T14:18:00;99495.0;;;15.99;92.9
79118;BME280;68523;51.336;-0.846;2023-07-31T14:21:00;99465.0;;;16.02;93.3
79118;BME280;68523;51.336;-0.846;2023-07-31T14:24:00;99415.0;;;16.19;92.6
79118;BME280;68523;51.336;-0.846;2023-07-31T14:27:00;99425.0;;;16.25;93.3
79118;BME280;68523;51.336;-0.846;2023-07-31T14:30:00;99425.0;;;16.40;93.9
79118;BME280;68523;51.336;-0.846;2023-07-31T14:33:00;99415.0;;;16.41;92.6
79118;BME280;68523;51.336;-0.846;2023-07-31T14:36:00;99425.0;;;16.54;92.6
79118;BME280;68523;51.336;-0.846;2023-07-31T14:39:00;99445.0;;;16.58;92.5
79118;BME280;68523;51.336;-0.846;2023-07-31T14:42:00;99405.0;;;16.74;92.0
79118;BME280;68523;51.336;-0.846;2023-07-31T14:45:00;99385.0;;;16.71;90.5
79118;BME280;68523;51.336;-0.846;2023-07-31T14:48:00;99395.0;;;16.93;89.8
79118;BME280;68523;51.336;-0.846;2023-07-31T14:51:00;99365.0;;;17.08;88.3
79118;BME280;68523;51.336;-0.846;2023-07-31T14:54:00;99395.0;;;17.14;87.6
79118;BME280;68523;51.336;-0.846;2023-07-31T14:57:00;99375.0;;;17.29;87.2
79118;BME280;68523;51.336;-0.846;2023-07-31T15:00:00;99385.0;;;17.31;86.5
79118;BME280;68523;51.336;-0.846;2023-07-31T15:03:01;99395.0;;;17.09;85.2
79118;BME280;68523;51.336;-0.846;2023-07-31T15:06:00;99385.0;;;17.10;84.9
79118;BME280;68523;51.336;-0.846;2023-07-31T15:09:00;99405.0;;;17.09;86.2
79118;BME280;68523;51.336;-0.846;2023-07-31T15:12:00;99385.0;;;17.23;86.3
79118;BME280;68523;51.336;-0.846;2023-07-31T15:15:00;99385.0;;;17.42;85.1
79118;BME280;68523;51.336;-0.846;2023-07-31T15:18:00;99375.0;;;17.78;84.0
79118;BME280;68523;51.336;-0.846;2023-07-31T15:21:00;99375.0;;;17.81;83.9
79118;BME280;68523;51.336;-0.846;2023-07-31T15:24:00;99375.0;;;17.78;81.1
79118;BME280;68523;51.336;-0.846;2023-07-31T15:27:00;99375.0;;;17.91;81.3
79118;BME280;68523;51.336;-0.846;2023-07-31T15:30:00;99385.0;;;17.74;80.0
79118;BME280;68523;51.336;-0.846;2023-07-31T15:33:01;99385.0;;;17.74;82.3
79118;BME280;68523;51.336;-0.846;2023-07-31T15:36:00;99385.0;;;17.84;80.7
79118;BME280;68523;51.336;-0.846;2023-07-31T15:39:00;99375.0;;;17.81;81.3
79118;BME280;68523;51.336;-0.846;2023-07-31T15:42:00;99365.0;;;18.12;80.9
79118;BME280;68523;51.336;-0.846;2023-07-31T15:45:00;99365.0;;;17.96;79.7
79118;BME280;68523;51.336;-0.846;2023-07-31T15:48:00;99355.0;;;18.41;80.2
79118;BME280;68523;51.336;-0.846;2023-07-31T15:51:00;99345.0;;;19.77;75.8
79118;BME280;68523;51.336;-0.846;2023-07-31T15:54:00;99345.0;;;18.83;79.0
79118;BME280;68523;51.336;-0.846;2023-07-31T15:57:00;99355.0;;;18.62;79.7
79118;BME280;68523;51.336;-0.846;2023-07-31T16:00:01;99365.0;;;18.13;79.7
79118;BME280;68523;51.336;-0.846;2023-07-31T16:03:00;99355.0;;;17.93;80.3